createdAt,value
2022-11-29T00:01:25.851Z,62.03
2022-11-29T00:03:53.316Z,66.90
2022-11-29T00:06:24.347Z,62.38
2022-11-29T00:08:51.434Z,66.75
2022-11-29T00:11:41.202Z,66.55
2022-11-29T00:14:09.150Z,64.50
2022-11-29T00:16:36.189Z,64.72
2022-11-29T00:19:03.276Z,72.53
2022-11-29T00:21:30.309Z,58.83
2022-11-29T00:23:57.396Z,69.47
2022-11-29T00:26:24.508Z,62.58
2022-11-29T00:28:51.668Z,62.60
2022-11-29T00:31:22.909Z,62.30
2022-11-29T00:33:50.030Z,61.65
2022-11-29T00:36:17.162Z,62.47
2022-11-29T00:38:44.226Z,62.67
2022-11-29T00:41:11.450Z,58.90
2022-11-29T00:43:38.476Z,55.47
2022-11-29T00:46:05.852Z,57.05
2022-11-29T00:48:33.017Z,62.13
2022-11-29T00:51:00.137Z,59.75
2022-11-29T00:53:27.276Z,58.20
2022-11-29T00:55:54.349Z,59.50
2022-11-29T00:58:21.469Z,61.47
2022-11-29T01:00:48.517Z,66.90
2022-11-29T01:03:15.923Z,67.57
2022-11-29T01:05:43.054Z,65.82
2022-11-29T01:08:10.407Z,63.22
2022-11-29T01:10:37.504Z,61.80
2022-11-29T01:13:04.554Z,64.25
2022-11-29T01:15:31.783Z,66.88
2022-11-29T01:17:58.849Z,63.47
2022-11-29T01:20:25.902Z,63.88
2022-11-29T01:22:52.976Z,68.38
2022-11-29T01:25:20.065Z,66.78
2022-11-29T01:27:47.309Z,64.32
2022-11-29T01:30:14.404Z,66.70
2022-11-29T01:32:41.438Z,61.40
2022-11-29T01:35:08.690Z,60.80
2022-11-29T01:37:35.739Z,66.95
2022-11-29T01:40:02.833Z,57.17
2022-11-29T01:42:29.903Z,60.92
2022-11-29T01:45:07.957Z,58.10
2022-11-29T01:47:35.402Z,61.70
2022-11-29T01:50:02.450Z,64.95
2022-11-29T01:52:29.630Z,60.05
2022-11-29T01:54:57.041Z,63.60
2022-11-29T01:57:24.122Z,65.40
2022-11-29T01:59:51.871Z,61.20
2022-11-29T02:02:20.598Z,73.55
2022-11-29T02:04:48.390Z,69.28
2022-11-29T02:07:15.558Z,69.68
2022-11-29T02:09:42.646Z,73.70
2022-11-29T02:12:15.504Z,69.90
2022-11-29T02:14:51.714Z,70.60
2022-11-29T02:17:33.761Z,71.22
2022-11-29T02:20:16.166Z,66.47
2022-11-29T02:22:58.267Z,69.03
2022-11-29T02:25:45.577Z,67.57
2022-11-29T02:28:12.690Z,72.93
2022-11-29T02:30:39.769Z,66.20
2022-11-29T02:33:25.390Z,68.93
2022-11-29T02:36:24.890Z,69.40
2022-11-29T02:38:57.116Z,65.55
2022-11-29T02:41:42.602Z,65.80
2022-11-29T02:44:09.637Z,65.68
2022-11-29T02:46:39.792Z,70.60
2022-11-29T02:49:19.342Z,68.25
2022-11-29T02:51:47.678Z,60.47
2022-11-29T02:54:16.772Z,67.90
2022-11-29T02:56:56.018Z,61.20
2022-11-29T02:59:41.114Z,67.95
2022-11-29T03:02:26.910Z,67.10
2022-11-29T03:05:12.834Z,62.90
2022-11-29T03:07:39.928Z,61.22
2022-11-29T03:10:09.953Z,71.55
2022-11-29T03:12:41.158Z,66.88
2022-11-29T03:15:23.786Z,61.60
2022-11-29T03:18:09.822Z,67.47
2022-11-29T03:20:46.100Z,66.82
2022-11-29T03:23:20.004Z,65.78
2022-11-29T03:25:50.104Z,65.72
2022-11-29T03:28:24.435Z,67.13
2022-11-29T03:30:53.546Z,63.47
2022-11-29T03:33:25.676Z,65.03
2022-11-29T03:35:56.222Z,60.65
2022-11-29T03:40:58.330Z,61.33
2022-11-29T03:43:28.196Z,63.95
2022-11-29T03:45:55.289Z,63.33
2022-11-29T03:48:28.948Z,60.78
2022-11-29T03:50:57.365Z,60.78
2022-11-29T03:53:29.604Z,59.85
2022-11-29T03:56:00.882Z,63.63
2022-11-29T03:58:46.921Z,62.92
2022-11-29T04:01:23.228Z,58.95
2022-11-29T04:03:50.351Z,65.75
2022-11-29T04:06:36.074Z,65.15
2022-11-29T04:09:20.409Z,60.33
2022-11-29T04:11:58.650Z,58.10
2022-11-29T04:14:31.126Z,58.22
2022-11-29T04:17:05.226Z,63.58
2022-11-29T04:19:50.718Z,60.85
2022-11-29T04:22:26.559Z,59.13
2022-11-29T04:24:56.362Z,62.55
2022-11-29T04:27:35.595Z,60.88
2022-11-29T04:30:02.774Z,59.63
2022-11-29T04:32:48.602Z,58.10
2022-11-29T04:35:21.248Z,56.20
2022-11-29T04:37:48.261Z,64.25
2022-11-29T04:40:27.193Z,58.50
2022-11-29T04:42:55.923Z,58.22
2022-11-29T04:45:36.732Z,63.47
2022-11-29T04:48:03.727Z,57.40
2022-11-29T04:50:43.571Z,64.68
2022-11-29T04:53:15.527Z,53.30
2022-11-29T04:56:02.060Z,62.85
2022-11-29T04:58:29.177Z,56.67
2022-11-29T05:01:01.579Z,55.72
2022-11-29T05:03:42.544Z,60.08
2022-11-29T05:06:28.681Z,65.13
2022-11-29T05:09:01.449Z,59.80
2022-11-29T05:11:45.940Z,58.58
2022-11-29T05:14:17.916Z,58.75
2022-11-29T05:16:48.019Z,60.97
2022-11-29T05:19:41.507Z,54.92
2022-11-29T05:22:23.768Z,54.83
2022-11-29T05:25:00.776Z,51.13
2022-11-29T05:27:32.121Z,48.85
2022-11-29T05:30:01.232Z,53.50
2022-11-29T05:32:32.922Z,49.83
2022-11-29T05:35:23.845Z,50.70
2022-11-29T05:38:09.599Z,44.92
2022-11-29T05:40:45.734Z,55.13
2022-11-29T05:43:12.798Z,48.80
2022-11-29T05:45:39.775Z,52.30
2022-11-29T05:48:22.174Z,48.67
2022-11-29T05:50:51.911Z,58.63
2022-11-29T05:53:26.176Z,58.40
2022-11-29T05:56:08.732Z,50.53
2022-11-29T05:58:43.969Z,55.50
2022-11-29T06:01:19.415Z,51.63
2022-11-29T06:03:54.963Z,52.17
2022-11-29T06:06:28.295Z,51.50
2022-11-29T06:09:15.550Z,54.90
2022-11-29T06:11:46.785Z,57.28
2022-11-29T06:14:27.192Z,54.92
2022-11-29T06:16:56.075Z,50.40
2022-11-29T06:19:42.264Z,53.63
2022-11-29T06:22:09.320Z,52.47
2022-11-29T06:24:39.620Z,55.67
2022-11-29T06:27:10.862Z,52.28
2022-11-29T06:29:56.713Z,50.05
2022-11-29T06:32:30.440Z,55.78
2022-11-29T06:34:59.619Z,50.55
2022-11-29T06:37:39.651Z,53.60
2022-11-29T06:40:07.048Z,58.80
2022-11-29T06:42:34.114Z,54.40
2022-11-29T06:45:01.346Z,60.95
2022-11-29T06:47:32.438Z,54.97
2022-11-29T06:50:03.320Z,55.60
2022-11-29T06:52:30.361Z,58.88
2022-11-29T06:55:11.315Z,60.35
2022-11-29T06:57:52.543Z,56.38
2022-11-29T07:00:23.322Z,54.45
2022-11-29T07:03:07.290Z,57.72
2022-11-29T07:05:35.048Z,61.53
2022-11-29T07:08:06.214Z,59.58
2022-11-29T07:10:34.131Z,54.03
2022-11-29T07:13:01.342Z,58.08
2022-11-29T07:15:28.647Z,62.88
2022-11-29T07:18:11.709Z,64.35
2022-11-29T07:20:53.956Z,60.45
2022-11-29T07:23:25.462Z,58.67
2022-11-29T07:26:25.144Z,58.92
2022-11-29T07:28:52.152Z,68.35
2022-11-29T07:31:37.994Z,66.97
2022-11-29T07:34:20.760Z,69.13
2022-11-29T07:36:56.941Z,62.80
2022-11-29T07:39:42.828Z,71.75
2022-11-29T07:42:25.560Z,60.33
2022-11-29T07:44:52.592Z,62.85
2022-11-29T07:47:19.583Z,65.82
2022-11-29T07:49:46.640Z,62.63
2022-11-29T07:52:14.081Z,62.47
2022-11-29T07:54:41.160Z,75.22
2022-11-29T07:57:08.454Z,80.55
2022-11-29T07:59:35.534Z,72.32
2022-11-29T08:02:04.668Z,72.57
2022-11-29T08:04:35.848Z,79.65
2022-11-29T08:07:02.867Z,83.57
2022-11-29T08:09:29.859Z,96.80
2022-11-29T08:11:56.871Z,78.43
2022-11-29T08:14:24.387Z,86.63
2022-11-29T08:16:51.473Z,92.82
2022-11-29T08:19:18.508Z,87.53
2022-11-29T08:21:47.689Z,86.28
2022-11-29T08:24:14.838Z,86.13
2022-11-29T08:26:41.875Z,79.68
2022-11-29T08:29:09.061Z,95.65
2022-11-29T08:31:36.126Z,98.25
2022-11-29T08:34:03.177Z,105.00
2022-11-29T08:36:30.429Z,91.95
2022-11-29T08:39:04.727Z,98.35
2022-11-29T08:41:35.838Z,105.10
2022-11-29T08:44:02.967Z,90.80
2022-11-29T08:46:50.000Z,93.50
2022-11-29T08:49:17.003Z,99.55
2022-11-29T08:51:44.021Z,96.60
2022-11-29T08:54:11.035Z,97.60
2022-11-29T08:59:25.098Z,83.10
2022-11-29T09:01:52.258Z,76.72
2022-11-29T09:04:19.278Z,76.72
2022-11-29T09:06:49.371Z,75.28
2022-11-29T09:09:16.605Z,77.32
2022-11-29T09:11:46.993Z,75.07
2022-11-29T09:14:16.622Z,78.40
2022-11-29T09:16:43.707Z,79.30
2022-11-29T09:19:10.772Z,82.53
2022-11-29T09:21:37.768Z,76.05
2022-11-29T09:24:06.301Z,76.38
2022-11-29T09:26:34.193Z,77.38
2022-11-29T09:29:01.908Z,76.70
2022-11-29T09:31:29.393Z,75.25
2022-11-29T09:33:56.604Z,76.15
2022-11-29T09:36:28.075Z,73.63
2022-11-29T09:38:56.101Z,58.33
2022-11-29T09:41:45.602Z,62.30
2022-11-29T09:44:29.672Z,57.67
2022-11-29T09:47:15.704Z,57.83
2022-11-29T09:49:46.498Z,58.88
2022-11-29T09:52:32.172Z,59.03
2022-11-29T09:55:02.360Z,54.25
2022-11-29T09:57:29.798Z,54.05
2022-11-29T09:59:58.623Z,49.72
2022-11-29T10:02:25.668Z,55.38
2022-11-29T10:05:04.473Z,54.38
2022-11-29T10:07:42.280Z,51.83
2022-11-29T10:10:10.128Z,52.15
2022-11-29T10:12:44.950Z,61.25
2022-11-29T10:15:13.921Z,70.25
2022-11-29T10:17:53.143Z,64.88
2022-11-29T10:20:44.656Z,62.38
2022-11-29T10:23:20.515Z,58.95
2022-11-29T10:25:48.384Z,53.17
2022-11-29T10:28:16.751Z,57.22
2022-11-29T10:30:43.810Z,53.67
2022-11-29T10:33:18.078Z,51.53
2022-11-29T10:35:45.354Z,48.28
2022-11-29T10:38:30.258Z,53.05
2022-11-29T10:41:08.441Z,54.83
2022-11-29T10:43:37.270Z,53.65
2022-11-29T10:46:04.304Z,51.83
2022-11-29T10:48:31.976Z,53.08
2022-11-29T10:51:00.326Z,49.58
2022-11-29T10:53:30.543Z,66.90
2022-11-29T10:56:08.372Z,57.03
2022-11-29T10:58:35.449Z,55.70
2022-11-29T11:01:08.949Z,51.60
2022-11-29T11:03:53.049Z,50.78
2022-11-29T11:06:20.339Z,51.15
2022-11-29T11:08:48.516Z,46.72
2022-11-29T11:11:15.584Z,48.97
2022-11-29T11:13:42.715Z,50.85
2022-11-29T11:16:12.903Z,45.88
2022-11-29T11:18:40.060Z,47.95
2022-11-29T11:21:08.903Z,46.55
2022-11-29T11:23:42.355Z,54.40
2022-11-29T11:26:11.202Z,50.35
2022-11-29T11:28:49.482Z,51.35
2022-11-29T11:31:16.622Z,55.88
2022-11-29T11:33:44.351Z,48.22
2022-11-29T11:36:14.441Z,51.65
2022-11-29T11:38:42.436Z,57.35
2022-11-29T11:41:12.485Z,56.80
2022-11-29T11:43:39.552Z,51.75
2022-11-29T11:46:08.057Z,54.65
2022-11-29T11:48:35.489Z,48.80
2022-11-29T11:51:03.086Z,51.45
2022-11-29T11:53:36.889Z,48.67
2022-11-29T11:56:07.228Z,51.10
2022-11-29T11:58:40.272Z,48.90
2022-11-29T12:01:13.218Z,55.78
2022-11-29T12:03:59.223Z,50.88
2022-11-29T12:06:46.608Z,48.80
2022-11-29T12:09:18.668Z,48.47
2022-11-29T12:12:12.246Z,43.65
2022-11-29T12:18:12.352Z,54.03
2022-11-29T12:20:57.939Z,44.08
2022-11-29T12:23:32.093Z,51.15
2022-11-29T12:26:06.532Z,48.13
2022-11-29T12:28:34.591Z,44.13
2022-11-29T12:31:20.413Z,47.90
2022-11-29T12:34:06.329Z,47.63
2022-11-29T12:36:42.550Z,48.45
2022-11-29T12:39:15.399Z,46.65
2022-11-29T12:41:49.528Z,52.33
2022-11-29T12:44:52.058Z,49.17
2022-11-29T12:47:36.109Z,46.95
2022-11-29T12:50:26.672Z,51.40
2022-11-29T12:53:12.283Z,45.87
2022-11-29T12:55:49.097Z,46.80
2022-11-29T12:58:21.938Z,50.38
2022-11-29T13:00:52.039Z,53.10
2022-11-29T13:03:19.150Z,43.45
2022-11-29T13:05:52.392Z,45.80
2022-11-29T13:08:37.898Z,46.65
2022-11-29T13:11:23.268Z,48.08
2022-11-29T13:14:13.494Z,48.67
2022-11-29T13:16:43.173Z,49.70
2022-11-29T13:19:13.473Z,49.70
2022-11-29T13:21:43.522Z,46.60
2022-11-29T13:24:11.707Z,45.17
2022-11-29T13:26:39.269Z,43.83
2022-11-29T13:29:06.353Z,47.13
2022-11-29T13:31:33.600Z,51.38
2022-11-29T13:34:18.058Z,47.90
2022-11-29T13:36:46.814Z,46.75
2022-11-29T13:39:23.055Z,45.20
2022-11-29T13:42:02.033Z,49.45
2022-11-29T13:44:37.382Z,49.22
2022-11-29T13:47:10.951Z,44.80
2022-11-29T13:49:57.341Z,41.17
2022-11-29T13:52:28.982Z,45.58
2022-11-29T13:55:11.650Z,43.00
2022-11-29T13:58:14.773Z,37.70
2022-11-29T14:00:48.654Z,40.90
2022-11-29T14:03:25.917Z,39.05
2022-11-29T14:06:04.287Z,43.85
2022-11-29T14:08:48.095Z,38.30
2022-11-29T14:11:25.706Z,39.10
2022-11-29T14:13:59.122Z,44.08
2022-11-29T14:16:37.007Z,40.83
2022-11-29T14:19:09.997Z,43.05
2022-11-29T14:21:55.699Z,42.70
2022-11-29T14:24:37.934Z,49.63
2022-11-29T14:27:12.489Z,51.75
2022-11-29T14:29:48.801Z,44.28
2022-11-29T14:32:21.871Z,44.45
2022-11-29T14:34:50.891Z,46.80
2022-11-29T14:37:30.197Z,42.33
2022-11-29T14:39:57.929Z,39.13
2022-11-29T14:42:25.673Z,40.30
2022-11-29T14:44:58.342Z,43.60
2022-11-29T14:47:38.869Z,38.45
2022-11-29T14:50:08.814Z,40.00
2022-11-29T14:52:39.586Z,44.67
2022-11-29T14:55:15.781Z,43.58
2022-11-29T14:57:45.593Z,43.13
2022-11-29T15:00:13.682Z,44.70
2022-11-29T15:02:46.813Z,43.08
2022-11-29T15:05:13.952Z,45.22
2022-11-29T15:07:45.643Z,48.65
2022-11-29T15:10:16.891Z,52.80
2022-11-29T15:12:43.985Z,53.40
2022-11-29T15:15:34.347Z,53.80
2022-11-29T15:18:04.865Z,49.40
2022-11-29T15:23:00.831Z,56.30
2022-11-29T15:25:30.883Z,60.28
2022-11-29T15:27:58.642Z,59.75
2022-11-29T15:30:36.221Z,61.53
2022-11-29T15:33:05.727Z,51.97
2022-11-29T15:35:33.501Z,54.45
2022-11-29T15:38:00.604Z,54.58
2022-11-29T15:40:35.037Z,57.70
2022-11-29T15:43:02.273Z,55.85
2022-11-29T15:45:36.413Z,52.00
2022-11-29T15:48:15.825Z,56.38
2022-11-29T15:50:45.088Z,58.70
2022-11-29T15:53:16.009Z,54.58
2022-11-29T15:55:43.525Z,53.42
2022-11-29T15:58:11.670Z,54.65
2022-11-29T16:00:38.709Z,59.47
2022-11-29T16:03:05.851Z,57.20
2022-11-29T16:05:36.991Z,63.00
2022-11-29T16:08:04.688Z,59.45
2022-11-29T16:10:47.253Z,60.88
2022-11-29T16:13:23.548Z,62.30
2022-11-29T16:15:57.384Z,56.03
2022-11-29T16:18:25.456Z,60.22
2022-11-29T16:21:02.324Z,61.45
2022-11-29T16:23:35.515Z,88.00
2022-11-29T16:26:02.697Z,60.78
2022-11-29T16:28:32.473Z,60.47
2022-11-29T16:31:00.039Z,68.75
2022-11-29T16:33:27.189Z,70.68
2022-11-29T16:36:07.029Z,206.35
2022-11-29T16:38:34.130Z,78.80
2022-11-29T16:41:01.892Z,190.85
2022-11-29T16:43:44.381Z,74.53
2022-11-29T16:46:20.516Z,68.00
2022-11-29T16:48:48.000Z,68.00
2022-11-29T16:51:16.233Z,65.47
2022-11-29T16:53:43.815Z,74.28
2022-11-29T16:56:11.409Z,75.80
2022-11-29T16:59:16.705Z,71.43
2022-11-29T17:01:26.763Z,78.97
2022-11-29T17:03:53.951Z,86.95
2022-11-29T17:06:22.496Z,84.72
2022-11-29T17:08:50.088Z,83.80
2022-11-29T17:11:17.303Z,80.95
2022-11-29T17:13:44.426Z,82.30
2022-11-29T17:16:13.197Z,83.35
2022-11-29T17:18:41.382Z,105.25
2022-11-29T17:21:16.595Z,96.10
2022-11-29T17:23:43.712Z,88.53
2022-11-29T17:26:10.754Z,83.57
2022-11-29T17:28:37.862Z,87.20
2022-11-29T17:31:11.379Z,84.70
2022-11-29T17:33:38.479Z,73.22
2022-11-29T17:36:09.022Z,85.13
2022-11-29T17:41:07.199Z,73.90
2022-11-29T17:43:34.891Z,74.15
2022-11-29T17:46:09.151Z,77.55
2022-11-29T17:48:36.501Z,72.70
2022-11-29T17:51:06.921Z,84.70
2022-11-29T17:53:40.524Z,78.57
2022-11-29T17:56:11.375Z,77.90
2022-11-29T17:58:38.504Z,74.40
2022-11-29T18:01:14.989Z,70.18
2022-11-29T18:03:42.478Z,74.40
2022-11-29T18:06:10.454Z,86.97
2022-11-29T18:08:38.810Z,86.63
2022-11-29T18:11:10.009Z,78.82
2022-11-29T18:13:37.142Z,82.28
2022-11-29T18:16:05.158Z,75.53
2022-11-29T18:18:32.216Z,81.03
2022-11-29T18:21:00.119Z,81.93
2022-11-29T18:23:28.834Z,74.45
2022-11-29T18:26:05.524Z,81.05
2022-11-29T18:28:34.635Z,87.50
2022-11-29T18:31:08.099Z,82.07
2022-11-29T18:33:35.281Z,89.32
2022-11-29T18:36:03.111Z,81.47
2022-11-29T18:38:30.157Z,78.43
2022-11-29T18:40:57.901Z,76.43
2022-11-29T18:43:24.961Z,62.85
2022-11-29T18:45:52.060Z,52.42
2022-11-29T18:48:19.168Z,52.50
2022-11-29T18:50:46.223Z,67.35
2022-11-29T18:53:13.632Z,60.13
2022-11-29T18:55:40.709Z,58.80
2022-11-29T18:58:08.313Z,59.60
2022-11-29T19:00:35.505Z,52.92
2022-11-29T19:03:02.541Z,51.13
2022-11-29T19:05:29.589Z,51.75
2022-11-29T19:07:56.718Z,50.95
2022-11-29T19:10:23.817Z,46.58
2022-11-29T19:12:50.887Z,48.30
2022-11-29T19:15:18.241Z,48.35
2022-11-29T19:17:45.281Z,60.67
2022-11-29T19:20:12.529Z,66.30
2022-11-29T19:22:39.601Z,195.57
2022-11-29T19:25:07.215Z,100.40
2022-11-29T19:27:34.302Z,94.57
2022-11-29T19:30:01.329Z,67.43
2022-11-29T19:32:28.374Z,60.10
2022-11-29T19:34:56.549Z,66.13
2022-11-29T19:37:23.678Z,69.88
2022-11-29T19:39:51.667Z,59.85
2022-11-29T19:42:18.808Z,54.67
2022-11-29T19:45:15.308Z,55.10
2022-11-29T19:47:32.955Z,44.95
2022-11-29T19:50:02.634Z,48.30
2022-11-29T19:52:30.013Z,47.42
2022-11-29T19:54:58.076Z,48.65
2022-11-29T19:57:25.198Z,50.35
2022-11-29T19:59:52.213Z,49.63
2022-11-29T20:02:19.773Z,50.35
2022-11-29T20:04:49.047Z,53.17
2022-11-29T20:07:16.189Z,48.45
2022-11-29T20:09:43.593Z,45.55
2022-11-29T20:12:10.810Z,49.08
2022-11-29T20:14:37.889Z,54.78
2022-11-29T20:17:05.000Z,53.67
2022-11-29T20:19:32.102Z,55.83
2022-11-29T20:21:59.221Z,58.13
2022-11-29T20:24:26.276Z,64.38
2022-11-29T20:26:53.418Z,62.92
2022-11-29T20:29:21.739Z,53.70
2022-11-29T20:31:50.980Z,60.25
2022-11-29T20:34:18.586Z,66.50
2022-11-29T20:36:51.447Z,63.90
2022-11-29T20:39:28.949Z,55.20
2022-11-29T20:41:56.032Z,63.75
2022-11-29T20:44:33.880Z,64.65
2022-11-29T20:47:01.090Z,61.90
2022-11-29T20:49:28.288Z,56.08
2022-11-29T20:51:56.514Z,60.00
2022-11-29T20:54:23.582Z,53.00
2022-11-29T20:56:50.691Z,46.45
2022-11-29T20:59:17.718Z,45.85
2022-11-29T21:01:44.814Z,48.10
2022-11-29T21:04:11.884Z,56.35
2022-11-29T21:06:39.239Z,50.97
2022-11-29T21:09:06.515Z,54.13
2022-11-29T21:11:33.789Z,46.67
2022-11-29T21:14:03.782Z,48.50
2022-11-29T21:16:31.606Z,50.40
2022-11-29T21:18:59.520Z,57.00
2022-11-29T21:21:31.329Z,45.55
2022-11-29T21:24:03.482Z,46.08
2022-11-29T21:26:41.704Z,45.92
2022-11-29T21:29:16.382Z,50.33
2022-11-29T21:31:43.800Z,55.65
2022-11-29T21:34:10.975Z,50.97
2022-11-29T21:36:38.058Z,51.22
2022-11-29T21:39:05.687Z,40.25
2022-11-29T21:41:32.971Z,49.33
2022-11-29T21:44:08.215Z,47.75
2022-11-29T21:46:35.751Z,48.22
2022-11-29T21:49:05.819Z,54.83
2022-11-29T21:51:32.879Z,58.53
2022-11-29T21:53:59.930Z,52.47
2022-11-29T21:56:26.958Z,56.25
2022-11-29T21:58:53.983Z,46.70
2022-11-29T22:01:21.395Z,48.08
2022-11-29T22:03:48.691Z,51.70
2022-11-29T22:06:18.204Z,46.83
2022-11-29T22:08:45.241Z,59.28
2022-11-29T22:11:13.148Z,51.53
2022-11-29T22:14:01.793Z,52.90
2022-11-29T22:16:29.375Z,48.72
2022-11-29T22:18:56.471Z,55.67
2022-11-29T22:21:23.563Z,47.50
2022-11-29T22:23:50.729Z,54.63
2022-11-29T22:26:17.724Z,49.92
2022-11-29T22:28:44.763Z,60.20
2022-11-29T22:31:12.353Z,52.40
2022-11-29T22:33:39.453Z,50.53
2022-11-29T22:36:07.041Z,49.38
2022-11-29T22:38:34.266Z,45.38
2022-11-29T22:41:05.278Z,43.25
2022-11-29T22:43:32.415Z,43.53
2022-11-29T22:46:12.677Z,48.47
2022-11-29T22:48:39.888Z,43.45
2022-11-29T22:51:10.782Z,45.50
2022-11-29T22:53:38.766Z,47.50
2022-11-29T22:56:06.445Z,51.15
2022-11-29T22:58:33.555Z,57.63
2022-11-29T23:01:04.464Z,60.80
2022-11-29T23:03:35.653Z,56.97
2022-11-29T23:06:05.887Z,54.47
2022-11-29T23:08:33.020Z,60.38
2022-11-29T23:11:00.227Z,69.22
2022-11-29T23:13:27.273Z,72.43
2022-11-29T23:15:54.323Z,72.93
2022-11-29T23:18:21.426Z,63.72
2022-11-29T23:20:48.548Z,57.03
2022-11-29T23:23:15.692Z,64.47
2022-11-29T23:25:49.533Z,61.38
2022-11-29T23:28:17.184Z,66.85
2022-11-29T23:30:44.318Z,75.88
2022-11-29T23:33:11.441Z,69.68
2022-11-29T23:35:38.502Z,67.65
2022-11-29T23:38:05.510Z,66.35
2022-11-29T23:40:32.579Z,62.83
2022-11-29T23:42:59.686Z,57.35
2022-11-29T23:45:26.849Z,63.17
2022-11-29T23:47:53.982Z,72.30
2022-11-29T23:50:21.017Z,55.28
2022-11-29T23:52:52.715Z,60.10
2022-11-29T23:55:19.934Z,59.88
2022-11-29T23:57:47.085Z,53.72
